sensor_id;sensor_type;location;lat;lon;timestamp;P1;durP1;ratioP1;P2;durP2;ratioP2
45059;SDS011;30799;49.060;9.312;2023-02-28T00:00:35;1.00;;;0.85;;
45059;SDS011;30799;49.060;9.312;2023-02-28T00:03:02;0.70;;;0.70;;
45059;SDS011;30799;49.060;9.312;2023-02-28T00:05:29;0.90;;;0.80;;
45059;SDS011;30799;49.060;9.312;2023-02-28T00:07:56;1.10;;;1.00;;
45059;SDS011;30799;49.060;9.312;2023-02-28T00:10:25;1.20;;;0.73;;
45059;SDS011;30799;49.060;9.312;2023-02-28T00:12:54;1.10;;;1.00;;
45059;SDS011;30799;49.060;9.312;2023-02-28T00:15:23;1.23;;;1.00;;
45059;SDS011;30799;49.060;9.312;2023-02-28T00:17:50;0.80;;;0.80;;
45059;SDS011;30799;49.060;9.312;2023-02-28T00:20:17;0.77;;;0.77;;
45059;SDS011;30799;49.060;9.312;2023-02-28T00:22:46;0.80;;;0.80;;
45059;SDS011;30799;49.060;9.312;2023-02-28T00:25:17;1.02;;;1.00;;
45059;SDS011;30799;49.060;9.312;2023-02-28T00:27:46;0.80;;;0.80;;
45059;SDS011;30799;49.060;9.312;2023-02-28T00:30:15;0.70;;;0.70;;
45059;SDS011;30799;49.060;9.312;2023-02-28T00:32:45;0.70;;;0.70;;
45059;SDS011;30799;49.060;9.312;2023-02-28T00:35:13;0.88;;;0.80;;
45059;SDS011;30799;49.060;9.312;2023-02-28T00:37:39;1.27;;;1.05;;
45059;SDS011;30799;49.060;9.312;2023-02-28T00:40:06;0.75;;;0.75;;
45059;SDS011;30799;49.060;9.312;2023-02-28T00:42:35;0.80;;;0.80;;
45059;SDS011;30799;49.060;9.312;2023-02-28T00:45:02;1.40;;;1.00;;
45059;SDS011;30799;49.060;9.312;2023-02-28T00:47:31;0.80;;;0.80;;
45059;SDS011;30799;49.060;9.312;2023-02-28T00:49:58;0.80;;;0.80;;
45059;SDS011;30799;49.060;9.312;2023-02-28T00:52:25;0.70;;;0.70;;
45059;SDS011;30799;49.060;9.312;2023-02-28T00:54:52;0.85;;;0.80;;
45059;SDS011;30799;49.060;9.312;2023-02-28T00:57:19;0.90;;;0.90;;
45059;SDS011;30799;49.060;9.312;2023-02-28T00:59:45;0.75;;;0.75;;
45059;SDS011;30799;49.060;9.312;2023-02-28T01:02:12;1.17;;;0.95;;
45059;SDS011;30799;49.060;9.312;2023-02-28T01:04:39;0.93;;;0.90;;
45059;SDS011;30799;49.060;9.312;2023-02-28T01:07:06;1.02;;;0.93;;
45059;SDS011;30799;49.060;9.312;2023-02-28T01:09:32;1.00;;;0.90;;
45059;SDS011;30799;49.060;9.312;2023-02-28T01:11:59;0.80;;;0.80;;
45059;SDS011;30799;49.060;9.312;2023-02-28T01:14:26;1.20;;;1.10;;
45059;SDS011;30799;49.060;9.312;2023-02-28T01:16:52;1.10;;;1.00;;
45059;SDS011;30799;49.060;9.312;2023-02-28T01:19:19;0.75;;;0.75;;
45059;SDS011;30799;49.060;9.312;2023-02-28T01:21:46;0.95;;;0.90;;
45059;SDS011;30799;49.060;9.312;2023-02-28T01:24:12;0.90;;;0.90;;
45059;SDS011;30799;49.060;9.312;2023-02-28T01:26:39;0.82;;;0.82;;
45059;SDS011;30799;49.060;9.312;2023-02-28T01:29:06;0.75;;;0.75;;
45059;SDS011;30799;49.060;9.312;2023-02-28T01:31:32;0.90;;;0.90;;
45059;SDS011;30799;49.060;9.312;2023-02-28T01:33:59;0.90;;;0.90;;
45059;SDS011;30799;49.060;9.312;2023-02-28T01:36:26;1.02;;;0.93;;
45059;SDS011;30799;49.060;9.312;2023-02-28T01:38:52;0.90;;;0.80;;
45059;SDS011;30799;49.060;9.312;2023-02-28T01:46:19;0.75;;;0.75;;
45059;SDS011;30799;49.060;9.312;2023-02-28T01:51:35;0.73;;;0.73;;
45059;SDS011;30799;49.060;9.312;2023-02-28T01:54:12;0.98;;;0.88;;
45059;SDS011;30799;49.060;9.312;2023-02-28T01:59:33;0.80;;;0.80;;
45059;SDS011;30799;49.060;9.312;2023-02-28T02:02:06;0.75;;;0.70;;
45059;SDS011;30799;49.060;9.312;2023-02-28T02:04:37;1.20;;;0.90;;
45059;SDS011;30799;49.060;9.312;2023-02-28T02:07:12;1.00;;;0.95;;
45059;SDS011;30799;49.060;9.312;2023-02-28T02:09:40;1.00;;;0.90;;
45059;SDS011;30799;49.060;9.312;2023-02-28T02:15:14;0.93;;;0.88;;
45059;SDS011;30799;49.060;9.312;2023-02-28T02:17:45;1.23;;;1.00;;
45059;SDS011;30799;49.060;9.312;2023-02-28T02:20:32;1.02;;;1.00;;
45059;SDS011;30799;49.060;9.312;2023-02-28T02:23:27;1.30;;;1.00;;
45059;SDS011;30799;49.060;9.312;2023-02-28T02:31:43;0.70;;;0.70;;
45059;SDS011;30799;49.060;9.312;2023-02-28T02:34:27;1.38;;;1.05;;
45059;SDS011;30799;49.060;9.312;2023-02-28T02:37:14;0.88;;;0.80;;
45059;SDS011;30799;49.060;9.312;2023-02-28T02:42:23;1.00;;;0.90;;
45059;SDS011;30799;49.060;9.312;2023-02-28T02:45:06;1.50;;;1.00;;
45059;SDS011;30799;49.060;9.312;2023-02-28T02:47:37;0.57;;;0.57;;
45059;SDS011;30799;49.060;9.312;2023-02-28T02:50:07;1.00;;;0.90;;
45059;SDS011;30799;49.060;9.312;2023-02-28T02:52:42;0.82;;;0.80;;
45059;SDS011;30799;49.060;9.312;2023-02-28T02:55:11;0.73;;;0.63;;
45059;SDS011;30799;49.060;9.312;2023-02-28T02:57:48;1.25;;;1.00;;
45059;SDS011;30799;49.060;9.312;2023-02-28T03:00:30;0.80;;;0.80;;
45059;SDS011;30799;49.060;9.312;2023-02-28T03:03:01;0.80;;;0.80;;
45059;SDS011;30799;49.060;9.312;2023-02-28T03:05:34;0.80;;;0.80;;
45059;SDS011;30799;49.060;9.312;2023-02-28T03:08:07;0.95;;;0.82;;
45059;SDS011;30799;49.060;9.312;2023-02-28T03:10:36;0.98;;;0.88;;
45059;SDS011;30799;49.060;9.312;2023-02-28T03:13:11;0.80;;;0.80;;
45059;SDS011;30799;49.060;9.312;2023-02-28T03:16:22;0.70;;;0.70;;
45059;SDS011;30799;49.060;9.312;2023-02-28T03:19:25;0.90;;;0.90;;
45059;SDS011;30799;49.060;9.312;2023-02-28T03:30:22;0.90;;;0.80;;
45059;SDS011;30799;49.060;9.312;2023-02-28T03:32:57;1.63;;;0.90;;
45059;SDS011;30799;49.060;9.312;2023-02-28T03:35:32;1.00;;;0.90;;
45059;SDS011;30799;49.060;9.312;2023-02-28T03:38:08;0.82;;;0.82;;
45059;SDS011;30799;49.060;9.312;2023-02-28T03:40:41;0.80;;;0.80;;
45059;SDS011;30799;49.060;9.312;2023-02-28T03:43:15;0.80;;;0.80;;
45059;SDS011;30799;49.060;9.312;2023-02-28T03:45:47;1.40;;;1.00;;
45059;SDS011;30799;49.060;9.312;2023-02-28T03:48:21;0.70;;;0.70;;
45059;SDS011;30799;49.060;9.312;2023-02-28T03:50:56;1.05;;;0.95;;
45059;SDS011;30799;49.060;9.312;2023-02-28T03:53:27;0.95;;;0.85;;
45059;SDS011;30799;49.060;9.312;2023-02-28T03:56:06;0.73;;;0.73;;
45059;SDS011;30799;49.060;9.312;2023-02-28T04:01:12;0.98;;;0.85;;
45059;SDS011;30799;49.060;9.312;2023-02-28T04:03:45;0.70;;;0.70;;
45059;SDS011;30799;49.060;9.312;2023-02-28T04:06:16;0.90;;;0.88;;
45059;SDS011;30799;49.060;9.312;2023-02-28T04:08:44;0.70;;;0.70;;
45059;SDS011;30799;49.060;9.312;2023-02-28T04:11:15;0.77;;;0.70;;
45059;SDS011;30799;49.060;9.312;2023-02-28T04:13:49;0.65;;;0.65;;
45059;SDS011;30799;49.060;9.312;2023-02-28T04:16:16;1.13;;;0.80;;
45059;SDS011;30799;49.060;9.312;2023-02-28T04:19:00;1.05;;;0.88;;
45059;SDS011;30799;49.060;9.312;2023-02-28T04:21:31;0.80;;;0.80;;
45059;SDS011;30799;49.060;9.312;2023-02-28T04:23:59;0.93;;;0.70;;
45059;SDS011;30799;49.060;9.312;2023-02-28T04:26:34;1.15;;;0.70;;
45059;SDS011;30799;49.060;9.312;2023-02-28T04:29:03;1.00;;;0.90;;
45059;SDS011;30799;49.060;9.312;2023-02-28T04:31:31;0.75;;;0.73;;
45059;SDS011;30799;49.060;9.312;2023-02-28T04:33:58;0.90;;;0.90;;
45059;SDS011;30799;49.060;9.312;2023-02-28T04:36:25;1.23;;;0.93;;
45059;SDS011;30799;49.060;9.312;2023-02-28T04:38:52;1.25;;;0.85;;
45059;SDS011;30799;49.060;9.312;2023-02-28T04:41:19;1.17;;;1.08;;
45059;SDS011;30799;49.060;9.312;2023-02-28T04:43:47;0.80;;;0.80;;
45059;SDS011;30799;49.060;9.312;2023-02-28T04:46:14;1.27;;;0.70;;
45059;SDS011;30799;49.060;9.312;2023-02-28T04:48:41;0.80;;;0.80;;
45059;SDS011;30799;49.060;9.312;2023-02-28T04:51:09;1.45;;;1.00;;
45059;SDS011;30799;49.060;9.312;2023-02-28T04:53:38;0.95;;;0.88;;
45059;SDS011;30799;49.060;9.312;2023-02-28T04:56:06;0.80;;;0.80;;
45059;SDS011;30799;49.060;9.312;2023-02-28T04:58:34;0.95;;;0.95;;
45059;SDS011;30799;49.060;9.312;2023-02-28T05:01:05;1.13;;;0.80;;
45059;SDS011;30799;49.060;9.312;2023-02-28T05:03:43;0.80;;;0.80;;
45059;SDS011;30799;49.060;9.312;2023-02-28T05:06:11;0.82;;;0.75;;
45059;SDS011;30799;49.060;9.312;2023-02-28T05:08:39;1.00;;;0.90;;
45059;SDS011;30799;49.060;9.312;2023-02-28T05:11:06;1.23;;;0.90;;
45059;SDS011;30799;49.060;9.312;2023-02-28T05:13:47;1.02;;;0.90;;
45059;SDS011;30799;49.060;9.312;2023-02-28T05:16:14;1.10;;;1.00;;
45059;SDS011;30799;49.060;9.312;2023-02-28T05:18:41;0.75;;;0.75;;
45059;SDS011;30799;49.060;9.312;2023-02-28T05:24:14;1.00;;;0.95;;
45059;SDS011;30799;49.060;9.312;2023-02-28T05:26:41;0.75;;;0.75;;
45059;SDS011;30799;49.060;9.312;2023-02-28T05:29:09;1.13;;;0.73;;
45059;SDS011;30799;49.060;9.312;2023-02-28T05:31:36;0.93;;;0.93;;
45059;SDS011;30799;49.060;9.312;2023-02-28T05:34:03;0.88;;;0.88;;
45059;SDS011;30799;49.060;9.312;2023-02-28T05:36:30;0.77;;;0.77;;
45059;SDS011;30799;49.060;9.312;2023-02-28T05:38:57;0.80;;;0.80;;
45059;SDS011;30799;49.060;9.312;2023-02-28T05:41:24;1.08;;;0.98;;
45059;SDS011;30799;49.060;9.312;2023-02-28T05:43:52;0.50;;;0.50;;
45059;SDS011;30799;49.060;9.312;2023-02-28T05:46:19;1.10;;;1.00;;
45059;SDS011;30799;49.060;9.312;2023-02-28T05:48:46;1.98;;;1.13;;
45059;SDS011;30799;49.060;9.312;2023-02-28T05:51:14;0.80;;;0.80;;
45059;SDS011;30799;49.060;9.312;2023-02-28T05:53:41;0.70;;;0.70;;
45059;SDS011;30799;49.060;9.312;2023-02-28T05:56:08;0.80;;;0.80;;
45059;SDS011;30799;49.060;9.312;2023-02-28T05:58:35;1.23;;;1.08;;
45059;SDS011;30799;49.060;9.312;2023-02-28T06:01:19;1.08;;;1.00;;
45059;SDS011;30799;49.060;9.312;2023-02-28T06:04:07;0.90;;;0.90;;
45059;SDS011;30799;49.060;9.312;2023-02-28T06:06:47;1.10;;;1.00;;
45059;SDS011;30799;49.060;9.312;2023-02-28T06:09:15;0.90;;;0.90;;
45059;SDS011;30799;49.060;9.312;2023-02-28T06:11:42;0.80;;;0.80;;
45059;SDS011;30799;49.060;9.312;2023-02-28T06:14:16;0.95;;;0.90;;
45059;SDS011;30799;49.060;9.312;2023-02-28T06:16:44;1.25;;;0.95;;
45059;SDS011;30799;49.060;9.312;2023-02-28T06:19:11;0.80;;;0.80;;
45059;SDS011;30799;49.060;9.312;2023-02-28T06:21:38;0.98;;;0.90;;
45059;SDS011;30799;49.060;9.312;2023-02-28T06:24:05;1.40;;;0.93;;
45059;SDS011;30799;49.060;9.312;2023-02-28T06:26:32;1.20;;;1.10;;
45059;SDS011;30799;49.060;9.312;2023-02-28T06:28:58;0.82;;;0.82;;
45059;SDS011;30799;49.060;9.312;2023-02-28T06:31:26;1.23;;;1.13;;
45059;SDS011;30799;49.060;9.312;2023-02-28T06:33:55;1.30;;;1.10;;
45059;SDS011;30799;49.060;9.312;2023-02-28T06:36:22;1.10;;;1.00;;
45059;SDS011;30799;49.060;9.312;2023-02-28T06:38:49;1.30;;;1.20;;
45059;SDS011;30799;49.060;9.312;2023-02-28T06:41:21;1.83;;;1.10;;
45059;SDS011;30799;49.060;9.312;2023-02-28T06:43:52;1.10;;;1.00;;
45059;SDS011;30799;49.060;9.312;2023-02-28T06:46:19;1.40;;;1.30;;
45059;SDS011;30799;49.060;9.312;2023-02-28T06:48:46;1.27;;;1.10;;
45059;SDS011;30799;49.060;9.312;2023-02-28T06:51:14;1.25;;;1.15;;
45059;SDS011;30799;49.060;9.312;2023-02-28T06:53:43;1.30;;;1.20;;
45059;SDS011;30799;49.060;9.312;2023-02-28T06:56:12;1.88;;;1.25;;
45059;SDS011;30799;49.060;9.312;2023-02-28T06:58:45;1.33;;;1.20;;
45059;SDS011;30799;49.060;9.312;2023-02-28T07:01:14;1.30;;;1.20;;
45059;SDS011;30799;49.060;9.312;2023-02-28T07:03:42;1.10;;;1.00;;
45059;SDS011;30799;49.060;9.312;2023-02-28T07:06:09;1.30;;;1.20;;
45059;SDS011;30799;49.060;9.312;2023-02-28T07:08:35;1.42;;;1.30;;
45059;SDS011;30799;49.060;9.312;2023-02-28T07:11:03;1.10;;;1.10;;
45059;SDS011;30799;49.060;9.312;2023-02-28T07:13:30;1.58;;;1.48;;
45059;SDS011;30799;49.060;9.312;2023-02-28T07:15:58;1.42;;;1.33;;
45059;SDS011;30799;49.060;9.312;2023-02-28T07:18:26;1.33;;;1.23;;
45059;SDS011;30799;49.060;9.312;2023-02-28T07:20:53;1.30;;;1.20;;
45059;SDS011;30799;49.060;9.312;2023-02-28T07:23:20;1.30;;;1.20;;
45059;SDS011;30799;49.060;9.312;2023-02-28T07:25:47;2.22;;;1.40;;
45059;SDS011;30799;49.060;9.312;2023-02-28T07:28:16;1.23;;;1.13;;
45059;SDS011;30799;49.060;9.312;2023-02-28T07:30:42;1.60;;;1.30;;
45059;SDS011;30799;49.060;9.312;2023-02-28T07:33:09;1.58;;;1.48;;
45059;SDS011;30799;49.060;9.312;2023-02-28T07:35:36;1.65;;;1.33;;
45059;SDS011;30799;49.060;9.312;2023-02-28T07:38:02;1.52;;;1.42;;
45059;SDS011;30799;49.060;9.312;2023-02-28T07:40:29;1.40;;;1.30;;
45059;SDS011;30799;49.060;9.312;2023-02-28T07:42:57;1.58;;;1.23;;
45059;SDS011;30799;49.060;9.312;2023-02-28T07:45:25;1.55;;;1.45;;
45059;SDS011;30799;49.060;9.312;2023-02-28T07:47:52;2.47;;;1.50;;
45059;SDS011;30799;49.060;9.312;2023-02-28T07:50:19;1.90;;;1.75;;
45059;SDS011;30799;49.060;9.312;2023-02-28T07:52:45;1.65;;;1.30;;
45059;SDS011;30799;49.060;9.312;2023-02-28T07:55:12;1.42;;;1.33;;
45059;SDS011;30799;49.060;9.312;2023-02-28T07:57:40;1.48;;;1.20;;
45059;SDS011;30799;49.060;9.312;2023-02-28T08:00:08;1.83;;;1.33;;
45059;SDS011;30799;49.060;9.312;2023-02-28T08:02:36;1.02;;;0.93;;
45059;SDS011;30799;49.060;9.312;2023-02-28T08:05:03;1.50;;;1.40;;
45059;SDS011;30799;49.060;9.312;2023-02-28T08:07:30;1.58;;;1.20;;
45059;SDS011;30799;49.060;9.312;2023-02-28T08:09:57;1.83;;;1.40;;
45059;SDS011;30799;49.060;9.312;2023-02-28T08:12:23;1.17;;;1.08;;
45059;SDS011;30799;49.060;9.312;2023-02-28T08:14:50;1.55;;;1.33;;
45059;SDS011;30799;49.060;9.312;2023-02-28T08:17:17;1.65;;;1.55;;
45059;SDS011;30799;49.060;9.312;2023-02-28T08:19:46;1.88;;;1.65;;
45059;SDS011;30799;49.060;9.312;2023-02-28T08:22:13;1.70;;;1.60;;
45059;SDS011;30799;49.060;9.312;2023-02-28T08:24:43;1.58;;;1.48;;
45059;SDS011;30799;49.060;9.312;2023-02-28T08:27:10;1.67;;;1.58;;
45059;SDS011;30799;49.060;9.312;2023-02-28T08:29:37;1.50;;;1.40;;
45059;SDS011;30799;49.060;9.312;2023-02-28T08:32:04;1.50;;;1.40;;
45059;SDS011;30799;49.060;9.312;2023-02-28T08:34:39;1.48;;;1.38;;
45059;SDS011;30799;49.060;9.312;2023-02-28T08:37:06;1.73;;;1.63;;
45059;SDS011;30799;49.060;9.312;2023-02-28T08:39:36;1.48;;;1.38;;
45059;SDS011;30799;49.060;9.312;2023-02-28T08:42:03;1.83;;;1.42;;
45059;SDS011;30799;49.060;9.312;2023-02-28T08:44:33;1.60;;;1.50;;
45059;SDS011;30799;49.060;9.312;2023-02-28T08:47:00;1.80;;;1.70;;
45059;SDS011;30799;49.060;9.312;2023-02-28T08:49:26;1.70;;;1.60;;
45059;SDS011;30799;49.060;9.312;2023-02-28T08:51:53;1.70;;;1.55;;
45059;SDS011;30799;49.060;9.312;2023-02-28T08:54:21;2.17;;;1.80;;
45059;SDS011;30799;49.060;9.312;2023-02-28T08:56:49;2.83;;;1.70;;
45059;SDS011;30799;49.060;9.312;2023-02-28T08:59:15;1.50;;;1.40;;
45059;SDS011;30799;49.060;9.312;2023-02-28T09:01:42;1.80;;;1.60;;
45059;SDS011;30799;49.060;9.312;2023-02-28T09:04:09;1.50;;;1.40;;
45059;SDS011;30799;49.060;9.312;2023-02-28T09:06:39;1.77;;;1.67;;
45059;SDS011;30799;49.060;9.312;2023-02-28T09:09:06;1.73;;;1.63;;
45059;SDS011;30799;49.060;9.312;2023-02-28T09:11:34;1.52;;;1.42;;
45059;SDS011;30799;49.060;9.312;2023-02-28T09:14:01;1.65;;;1.55;;
45059;SDS011;30799;49.060;9.312;2023-02-28T09:16:30;1.60;;;1.50;;
45059;SDS011;30799;49.060;9.312;2023-02-28T09:18:59;1.70;;;1.60;;
45059;SDS011;30799;49.060;9.312;2023-02-28T09:21:25;1.90;;;1.70;;
45059;SDS011;30799;49.060;9.312;2023-02-28T09:23:53;1.88;;;1.70;;
45059;SDS011;30799;49.060;9.312;2023-02-28T09:26:21;1.90;;;1.60;;
45059;SDS011;30799;49.060;9.312;2023-02-28T09:28:50;1.65;;;1.55;;
45059;SDS011;30799;49.060;9.312;2023-02-28T09:31:19;1.63;;;1.40;;
45059;SDS011;30799;49.060;9.312;2023-02-28T09:33:51;2.08;;;1.95;;
45059;SDS011;30799;49.060;9.312;2023-02-28T09:36:20;1.95;;;1.67;;
45059;SDS011;30799;49.060;9.312;2023-02-28T09:38:56;2.00;;;1.60;;
45059;SDS011;30799;49.060;9.312;2023-02-28T09:41:24;1.35;;;1.25;;
45059;SDS011;30799;49.060;9.312;2023-02-28T09:43:57;1.70;;;1.60;;
45059;SDS011;30799;49.060;9.312;2023-02-28T09:49:13;2.10;;;1.80;;
45059;SDS011;30799;49.060;9.312;2023-02-28T09:54:19;1.70;;;1.60;;
45059;SDS011;30799;49.060;9.312;2023-02-28T09:59:32;1.58;;;1.48;;
45059;SDS011;30799;49.060;9.312;2023-02-28T10:02:21;1.70;;;1.60;;
45059;SDS011;30799;49.060;9.312;2023-02-28T10:05:11;1.90;;;1.80;;
45059;SDS011;30799;49.060;9.312;2023-02-28T10:12:55;1.80;;;1.60;;
45059;SDS011;30799;49.060;9.312;2023-02-28T10:15:25;1.88;;;1.70;;
45059;SDS011;30799;49.060;9.312;2023-02-28T10:18:00;2.05;;;1.65;;
45059;SDS011;30799;49.060;9.312;2023-02-28T10:20:38;3.05;;;1.70;;
45059;SDS011;30799;49.060;9.312;2023-02-28T10:23:16;1.70;;;1.60;;
45059;SDS011;30799;49.060;9.312;2023-02-28T10:25:53;1.80;;;1.70;;
45059;SDS011;30799;49.060;9.312;2023-02-28T10:28:25;1.88;;;1.75;;
45059;SDS011;30799;49.060;9.312;2023-02-28T10:30:54;1.63;;;1.50;;
45059;SDS011;30799;49.060;9.312;2023-02-28T10:33:26;1.75;;;1.65;;
45059;SDS011;30799;49.060;9.312;2023-02-28T10:35:58;2.05;;;1.85;;
45059;SDS011;30799;49.060;9.312;2023-02-28T10:38:34;2.28;;;1.70;;
45059;SDS011;30799;49.060;9.312;2023-02-28T10:41:05;2.05;;;1.80;;
45059;SDS011;30799;49.060;9.312;2023-02-28T10:43:35;2.08;;;1.77;;
45059;SDS011;30799;49.060;9.312;2023-02-28T10:51:03;1.83;;;1.73;;
45059;SDS011;30799;49.060;9.312;2023-02-28T10:53:37;1.85;;;1.60;;
45059;SDS011;30799;49.060;9.312;2023-02-28T10:56:26;1.92;;;1.80;;
45059;SDS011;30799;49.060;9.312;2023-02-28T11:06:59;1.48;;;1.38;;
45059;SDS011;30799;49.060;9.312;2023-02-28T11:09:28;1.60;;;1.45;;
45059;SDS011;30799;49.060;9.312;2023-02-28T11:11:55;2.05;;;1.85;;
45059;SDS011;30799;49.060;9.312;2023-02-28T11:14:24;1.90;;;1.80;;
45059;SDS011;30799;49.060;9.312;2023-02-28T11:16:53;2.20;;;2.00;;
45059;SDS011;30799;49.060;9.312;2023-02-28T11:19:23;2.13;;;1.92;;
45059;SDS011;30799;49.060;9.312;2023-02-28T11:21:55;1.80;;;1.65;;
45059;SDS011;30799;49.060;9.312;2023-02-28T11:24:40;1.77;;;1.67;;
45059;SDS011;30799;49.060;9.312;2023-02-28T11:27:43;1.83;;;1.60;;
45059;SDS011;30799;49.060;9.312;2023-02-28T11:30:27;2.03;;;1.80;;
45059;SDS011;30799;49.060;9.312;2023-02-28T11:33:20;1.70;;;1.60;;
45059;SDS011;30799;49.060;9.312;2023-02-28T11:35:51;2.33;;;1.70;;
45059;SDS011;30799;49.060;9.312;2023-02-28T11:38:18;1.73;;;1.63;;
45059;SDS011;30799;49.060;9.312;2023-02-28T11:40:51;2.08;;;1.88;;
45059;SDS011;30799;49.060;9.312;2023-02-28T11:48:33;1.80;;;1.70;;
45059;SDS011;30799;49.060;9.312;2023-02-28T11:51:21;1.85;;;1.75;;
45059;SDS011;30799;49.060;9.312;2023-02-28T11:57:18;2.00;;;1.80;;
45059;SDS011;30799;49.060;9.312;2023-02-28T12:13:23;1.90;;;1.70;;
45059;SDS011;30799;49.060;9.312;2023-02-28T12:15:58;1.92;;;1.73;;
45059;SDS011;30799;49.060;9.312;2023-02-28T12:21:44;1.73;;;1.63;;
45059;SDS011;30799;49.060;9.312;2023-02-28T12:24:28;1.95;;;1.75;;
45059;SDS011;30799;49.060;9.312;2023-02-28T12:27:09;2.03;;;1.83;;
45059;SDS011;30799;49.060;9.312;2023-02-28T12:29:58;2.53;;;2.28;;
45059;SDS011;30799;49.060;9.312;2023-02-28T12:32:40;1.88;;;1.77;;
45059;SDS011;30799;49.060;9.312;2023-02-28T12:37:40;2.00;;;1.73;;
45059;SDS011;30799;49.060;9.312;2023-02-28T12:40:21;2.17;;;1.98;;
45059;SDS011;30799;49.060;9.312;2023-02-28T12:42:51;2.28;;;1.90;;
45059;SDS011;30799;49.060;9.312;2023-02-28T12:48:43;2.03;;;1.80;;
45059;SDS011;30799;49.060;9.312;2023-02-28T12:51:22;1.98;;;1.77;;
45059;SDS011;30799;49.060;9.312;2023-02-28T12:54:04;2.20;;;2.00;;
45059;SDS011;30799;49.060;9.312;2023-02-28T12:59:41;1.63;;;1.52;;
45059;SDS011;30799;49.060;9.312;2023-02-28T13:05:08;2.15;;;1.95;;
45059;SDS011;30799;49.060;9.312;2023-02-28T13:10:49;1.70;;;1.60;;
45059;SDS011;30799;49.060;9.312;2023-02-28T13:13:21;2.40;;;2.00;;
45059;SDS011;30799;49.060;9.312;2023-02-28T13:18:30;2.28;;;2.08;;
45059;SDS011;30799;49.060;9.312;2023-02-28T13:21:02;2.17;;;1.83;;
45059;SDS011;30799;49.060;9.312;2023-02-28T13:23:56;1.83;;;1.67;;
45059;SDS011;30799;49.060;9.312;2023-02-28T13:28:59;2.55;;;2.17;;
45059;SDS011;30799;49.060;9.312;2023-02-28T13:31:26;2.20;;;2.00;;
45059;SDS011;30799;49.060;9.312;2023-02-28T13:36:24;2.17;;;1.95;;
45059;SDS011;30799;49.060;9.312;2023-02-28T13:38:56;1.85;;;1.70;;
45059;SDS011;30799;49.060;9.312;2023-02-28T13:47:27;2.22;;;2.03;;
45059;SDS011;30799;49.060;9.312;2023-02-28T13:49:28;1.80;;;1.70;;
45059;SDS011;30799;49.060;9.312;2023-02-28T13:54:33;2.10;;;1.90;;
45059;SDS011;30799;49.060;9.312;2023-02-28T13:57:25;2.00;;;1.80;;
45059;SDS011;30799;49.060;9.312;2023-02-28T14:05:21;2.03;;;1.70;;
45059;SDS011;30799;49.060;9.312;2023-02-28T14:07:55;2.05;;;1.70;;
45059;SDS011;30799;49.060;9.312;2023-02-28T14:10:28;2.60;;;1.95;;
45059;SDS011;30799;49.060;9.312;2023-02-28T14:13:11;2.20;;;2.00;;
45059;SDS011;30799;49.060;9.312;2023-02-28T14:15:41;1.75;;;1.63;;
45059;SDS011;30799;49.060;9.312;2023-02-28T14:18:16;1.85;;;1.70;;
45059;SDS011;30799;49.060;9.312;2023-02-28T14:20:44;1.85;;;1.75;;
45059;SDS011;30799;49.060;9.312;2023-02-28T14:31:21;1.85;;;1.73;;
45059;SDS011;30799;49.060;9.312;2023-02-28T14:36:32;2.15;;;1.95;;
45059;SDS011;30799;49.060;9.312;2023-02-28T14:39:13;2.47;;;2.10;;
45059;SDS011;30799;49.060;9.312;2023-02-28T14:41:42;2.10;;;1.90;;
45059;SDS011;30799;49.060;9.312;2023-02-28T14:46:42;1.80;;;1.70;;
45059;SDS011;30799;49.060;9.312;2023-02-28T14:49:12;1.80;;;1.70;;
45059;SDS011;30799;49.060;9.312;2023-02-28T14:54:36;1.85;;;1.75;;
45059;SDS011;30799;49.060;9.312;2023-02-28T14:57:04;2.50;;;2.05;;
45059;SDS011;30799;49.060;9.312;2023-02-28T14:59:32;1.95;;;1.85;;
45059;SDS011;30799;49.060;9.312;2023-02-28T15:04:43;1.80;;;1.70;;
45059;SDS011;30799;49.060;9.312;2023-02-28T15:07:20;2.10;;;1.95;;
45059;SDS011;30799;49.060;9.312;2023-02-28T15:10:07;2.20;;;2.00;;
45059;SDS011;30799;49.060;9.312;2023-02-28T15:12:51;2.17;;;1.98;;
45059;SDS011;30799;49.060;9.312;2023-02-28T15:15:24;2.50;;;2.05;;
45059;SDS011;30799;49.060;9.312;2023-02-28T15:18:43;1.92;;;1.75;;
45059;SDS011;30799;49.060;9.312;2023-02-28T15:21:20;2.00;;;1.80;;
45059;SDS011;30799;49.060;9.312;2023-02-28T15:23:51;1.98;;;1.75;;
45059;SDS011;30799;49.060;9.312;2023-02-28T15:26:22;2.10;;;1.90;;
45059;SDS011;30799;49.060;9.312;2023-02-28T15:28:56;2.38;;;2.00;;
45059;SDS011;30799;49.060;9.312;2023-02-28T15:31:27;1.88;;;1.77;;
45059;SDS011;30799;49.060;9.312;2023-02-28T15:34:18;2.10;;;1.88;;
45059;SDS011;30799;49.060;9.312;2023-02-28T15:36:49;2.20;;;2.00;;
45059;SDS011;30799;49.060;9.312;2023-02-28T15:39:24;2.33;;;2.10;;
45059;SDS011;30799;49.060;9.312;2023-02-28T15:42:09;1.77;;;1.60;;
45059;SDS011;30799;49.060;9.312;2023-02-28T15:44:44;1.77;;;1.67;;
45059;SDS011;30799;49.060;9.312;2023-02-28T15:47:46;2.00;;;1.80;;
45059;SDS011;30799;49.060;9.312;2023-02-28T15:50:06;1.90;;;1.77;;
45059;SDS011;30799;49.060;9.312;2023-02-28T15:52:40;1.83;;;1.73;;
45059;SDS011;30799;49.060;9.312;2023-02-28T15:57:50;1.80;;;1.70;;
45059;SDS011;30799;49.060;9.312;2023-02-28T16:00:21;2.10;;;1.90;;
45059;SDS011;30799;49.060;9.312;2023-02-28T16:02:49;2.30;;;1.80;;
45059;SDS011;30799;49.060;9.312;2023-02-28T16:07:57;1.98;;;1.77;;
45059;SDS011;30799;49.060;9.312;2023-02-28T16:10:36;2.03;;;1.83;;
45059;SDS011;30799;49.060;9.312;2023-02-28T16:13:04;2.75;;;2.05;;
45059;SDS011;30799;49.060;9.312;2023-02-28T16:15:35;1.80;;;1.70;;
45059;SDS011;30799;49.060;9.312;2023-02-28T16:18:08;2.00;;;1.80;;
45059;SDS011;30799;49.060;9.312;2023-02-28T16:20:38;2.08;;;1.83;;
45059;SDS011;30799;49.060;9.312;2023-02-28T16:23:05;1.80;;;1.70;;
45059;SDS011;30799;49.060;9.312;2023-02-28T16:25:33;2.00;;;1.77;;
45059;SDS011;30799;49.060;9.312;2023-02-28T16:28:01;2.10;;;1.90;;
45059;SDS011;30799;49.060;9.312;2023-02-28T16:30:28;2.13;;;1.85;;
45059;SDS011;30799;49.060;9.312;2023-02-28T16:32:58;2.45;;;1.83;;
45059;SDS011;30799;49.060;9.312;2023-02-28T16:35:25;2.00;;;1.90;;
45059;SDS011;30799;49.060;9.312;2023-02-28T16:37:52;2.00;;;1.80;;
45059;SDS011;30799;49.060;9.312;2023-02-28T16:40:23;2.17;;;1.95;;
45059;SDS011;30799;49.060;9.312;2023-02-28T16:43:00;1.90;;;1.80;;
45059;SDS011;30799;49.060;9.312;2023-02-28T16:45:30;2.35;;;2.00;;
45059;SDS011;30799;49.060;9.312;2023-02-28T16:47:57;2.05;;;1.85;;
45059;SDS011;30799;49.060;9.312;2023-02-28T16:50:25;2.30;;;2.10;;
45059;SDS011;30799;49.060;9.312;2023-02-28T16:52:56;2.05;;;1.90;;
45059;SDS011;30799;49.060;9.312;2023-02-28T16:55:23;1.83;;;1.73;;
45059;SDS011;30799;49.060;9.312;2023-02-28T16:57:54;2.05;;;1.83;;
45059;SDS011;30799;49.060;9.312;2023-02-28T17:00:26;2.05;;;1.85;;
45059;SDS011;30799;49.060;9.312;2023-02-28T17:02:54;1.98;;;1.77;;
45059;SDS011;30799;49.060;9.312;2023-02-28T17:05:22;2.03;;;1.83;;
45059;SDS011;30799;49.060;9.312;2023-02-28T17:07:49;2.00;;;1.90;;
45059;SDS011;30799;49.060;9.312;2023-02-28T17:10:17;2.30;;;2.10;;
45059;SDS011;30799;49.060;9.312;2023-02-28T17:12:45;2.50;;;2.25;;
45059;SDS011;30799;49.060;9.312;2023-02-28T17:15:13;2.30;;;2.10;;
45059;SDS011;30799;49.060;9.312;2023-02-28T17:17:41;2.13;;;1.92;;
45059;SDS011;30799;49.060;9.312;2023-02-28T17:20:12;2.00;;;1.83;;
45059;SDS011;30799;49.060;9.312;2023-02-28T17:22:44;2.20;;;2.00;;
45059;SDS011;30799;49.060;9.312;2023-02-28T17:25:11;2.45;;;2.25;;
45059;SDS011;30799;49.060;9.312;2023-02-28T17:27:37;2.38;;;2.03;;
45059;SDS011;30799;49.060;9.312;2023-02-28T17:30:13;2.38;;;2.05;;
45059;SDS011;30799;49.060;9.312;2023-02-28T17:32:45;2.33;;;2.13;;
45059;SDS011;30799;49.060;9.312;2023-02-28T17:35:12;2.30;;;1.92;;
45059;SDS011;30799;49.060;9.312;2023-02-28T17:37:39;2.10;;;1.90;;
45059;SDS011;30799;49.060;9.312;2023-02-28T17:40:10;2.83;;;1.85;;